CYDP/YDP METAR and TAF weather

Enter ICAO airport designator
Station Type Date Time Source
CYDP METAR 2019/10/21 22:00 UTC NOAA

CYDP 212200Z 08004KT 15SM BKN023 02/M01 A3019 RMK SC6 SLP225


Station Type Date Time Source
CYDP Decoded METAR 2019/10/21 22:00 UTC NOAA

Nain, Nfld, Canada (CYDP) 56-33N 061-41W 7M
Oct 21, 2019 - 06:00 PM EDT / 2019.10.21 2200 UTC
Wind: from the E (080 degrees) at 5 MPH (4 KT):0
Visibility: 15 mile(s):0
Sky conditions: mostly cloudy
Temperature: 35 F (2 C)
Windchill: 30 F (-1 C):1
Dew Point: 30 F (-1 C)
Relative Humidity: 80%
Pressure (altimeter): 30.19 in. Hg (1022 hPa)
ob: CYDP 212200Z 08004KT 15SM BKN023 02/M01 A3019 RMK SC6 SLP225
cycle: 22

Station Type Date Time Source
CYDP TAF 2019/10/21 20:00 UTC NOAA

TAF CYDP 211938Z 2120/2123 31010KT P6SM BKN020
TEMPO 2120/2123 BKN025
RMK NXT FCST WILL BE ISSUED AT 220945Z

Example: see airport list